Rapid City, MI (49676)

12:22 AM EST on January 28, 2015 (GMT -0500)
APRSWXNET Rapid City MI US | Change Station
CLOSE
Current Station
Personal Weather Station
Location: Rapid City, MI
Elevation: 600 ft
Nearby Weather Stations

Elev 600 ft 44.85 °N, 85.31 °W | Updated 48 minutes ago

Clear
Clear
8 °F
Feels Like 8 °F
N
0
Wind Variable Wind from North
Gusts 0.0 mph

Today
High -- | Low -- °F
--% Chance of Precip.
Yesterday
High -- | Low -- °F
Precip. -- in
8:04 AM 5:43 PM
First Quarter, 61% visible
Pressure 30.25 in
Visibility 10.0 miles
Clouds Clear
Windchill 8 °F
Dew Point 6 °F
Humidity 90%
Rainfall 0.00 in
Snow Depth Not available.
UV 0 out of 12
Pollen .10 out of 12
Air Quality Not available.
Flu Activity Not available.
METAR KACB 280515Z AUTO 00000KT 10SM CLR M15/M17 A3025 RMK AO2 T11531169

More Conditions Fewer Conditions

Pressure 30.25 in
Visibility 10.0 miles
Clouds Clear
Windchill 8 °F
Dew Point 6 °F
Humidity 90%
Rainfall 0.00 in
Snow Depth Not available.
UV 0 out of 12
Pollen .10 out of 12
Air Quality Not available.
Flu Activity Not available.
METAR KACB 280515Z AUTO 00000KT 10SM CLR M15/M17 A3025 RMK AO2 T11531169

More Conditions Fewer Conditions

Nowcast | as of 12:00 am EST on January 28, 2015

At 1 am...mostly clear. Temperature 1 above. Light winds. At 3 am...partly cloudy. Temperature 1 above. Light winds. At 5 am...partly cloudy. Temperature 1 above. Light winds. At 7 am...partly cloudy. Temperature 5 above. Light winds.

×

10-Day Weather Forecast

Almanac

Astronomy

Jan. 28, 2015 Rise Set
Actual Time
Civil Twilight
Nautical Twilight
Astronomical Twilight
Moon
Length of Visible Light
Length of Day
Tomorrow will be .
, % of the Moon is Illuminated

Today's Extremes

State Highs State Lows

Community

WunderPhotos

Upload Photos

1,791,103 photos uploaded!

WunderBlogs® & News

Nearby

Air Quality

  Air Quality AQ Index Pollutant
Not available.

Snow Depth

Station Depth Elevation

Earthquake Activity

City Distance Mag. Time & Date
Minimum magnitude displayed is 2.5.

Coastal Water Temperatures

Place Temperature

Nearby Weather Stations